Ana Sayfa
METAR-TAF:

METAR-TAF

Havaalanları :

Caldwell, New Jersey, Amerika Birleşik Devletleri

Enlem: 40-52-35N, Boylam: 074-16-59W, yükseklik: 52 m

Güncel hava durumu gözlemi

Rapor saat 05:53 UTC de 32 dakika önce yapıldı.
Sakin rüzgar
Sıcaklık 21°C
Nem 88%
Basınç 1014 hPa
Görüş mesafesi: 16.1 km
Açık gökyüzü

METAR: KCDW 260553Z AUTO 00000KT 10SM CLR 21/19 A2993 RMK AO2 SLP140 T02110189 10300 20211 51017

Saat: 02:25 (06:25 UTC)


TAF: eksik

4.000'den fazla havaalanı için hava durumu gözlemleri ve tahminleri (METAR ve TAF raporları).

Kullanılabilir istasyonlar harita üzerinde sarı ve kırmızı noktalarla gösterilir.

İstasyonun adını görmek için fareyi noktanın üzerinde gezdirin.

Sonrasında hava gözlem ve tahminlerini görmek için tıklayın.

Haritayı değiştirmek için: yaklaştırmak için siyah artı işaretli yeşil düğmeye ve uzaklaştırmak için de eksi işaretli düğmeye hızla tıklayın; bitişik haritalar için yeşil okları kullanın.


METAR-TAF: